sensor_id;sensor_type;location;lat;lon;timestamp;temperature;humidity
48162;DHT22;33950;48.154;16.316;2023-03-01T00:00:42;2.60;82.60
48162;DHT22;33950;48.154;16.316;2023-03-01T00:03:32;2.60;82.50
48162;DHT22;33950;48.154;16.316;2023-03-01T00:06:19;2.60;82.40
48162;DHT22;33950;48.154;16.316;2023-03-01T00:09:07;2.50;82.40
48162;DHT22;33950;48.154;16.316;2023-03-01T00:11:53;2.40;82.70
48162;DHT22;33950;48.154;16.316;2023-03-01T00:14:39;2.40;82.70
48162;DHT22;33950;48.154;16.316;2023-03-01T00:17:27;2.50;82.80
48162;DHT22;33950;48.154;16.316;2023-03-01T00:20:13;2.50;82.80
48162;DHT22;33950;48.154;16.316;2023-03-01T00:23:00;2.50;82.50
48162;DHT22;33950;48.154;16.316;2023-03-01T00:25:48;2.40;82.50
48162;DHT22;33950;48.154;16.316;2023-03-01T00:28:34;2.40;82.60
48162;DHT22;33950;48.154;16.316;2023-03-01T00:31:22;2.40;83.10
48162;DHT22;33950;48.154;16.316;2023-03-01T00:34:09;2.40;82.70
48162;DHT22;33950;48.154;16.316;2023-03-01T00:36:55;2.40;82.80
48162;DHT22;33950;48.154;16.316;2023-03-01T00:39:41;2.50;82.70
48162;DHT22;33950;48.154;16.316;2023-03-01T00:42:29;2.50;82.70
48162;DHT22;33950;48.154;16.316;2023-03-01T00:45:15;2.60;82.70
48162;DHT22;33950;48.154;16.316;2023-03-01T00:48:01;2.70;82.40
48162;DHT22;33950;48.154;16.316;2023-03-01T00:50:47;2.80;82.30
48162;DHT22;33950;48.154;16.316;2023-03-01T00:53:34;2.80;82.30
48162;DHT22;33950;48.154;16.316;2023-03-01T00:56:20;2.80;82.40
48162;DHT22;33950;48.154;16.316;2023-03-01T00:59:08;2.90;82.40
48162;DHT22;33950;48.154;16.316;2023-03-01T01:01:54;2.90;82.20
48162;DHT22;33950;48.154;16.316;2023-03-01T01:04:40;2.80;81.70
48162;DHT22;33950;48.154;16.316;2023-03-01T01:07:26;2.60;82.20
48162;DHT22;33950;48.154;16.316;2023-03-01T01:10:12;2.40;83.30
48162;DHT22;33950;48.154;16.316;2023-03-01T01:13:03;2.30;82.80
48162;DHT22;33950;48.154;16.316;2023-03-01T01:15:50;2.30;83.00
48162;DHT22;33950;48.154;16.316;2023-03-01T01:18:36;2.40;83.30
48162;DHT22;33950;48.154;16.316;2023-03-01T01:21:24;2.50;83.20
48162;DHT22;33950;48.154;16.316;2023-03-01T01:24:10;2.40;83.10
48162;DHT22;33950;48.154;16.316;2023-03-01T01:26:57;2.50;83.30
48162;DHT22;33950;48.154;16.316;2023-03-01T01:29:43;2.60;83.30
48162;DHT22;33950;48.154;16.316;2023-03-01T01:32:30;2.60;83.10
48162;DHT22;33950;48.154;16.316;2023-03-01T01:35:16;2.40;83.10
48162;DHT22;33950;48.154;16.316;2023-03-01T01:38:02;2.30;83.30
48162;DHT22;33950;48.154;16.316;2023-03-01T01:40:49;2.20;83.60
48162;DHT22;33950;48.154;16.316;2023-03-01T01:43:38;2.10;83.80
48162;DHT22;33950;48.154;16.316;2023-03-01T01:46:29;2.20;83.90
48162;DHT22;33950;48.154;16.316;2023-03-01T01:49:23;2.20;84.00
48162;DHT22;33950;48.154;16.316;2023-03-01T01:52:12;2.40;84.00
48162;DHT22;33950;48.154;16.316;2023-03-01T01:55:02;2.50;83.80
48162;DHT22;33950;48.154;16.316;2023-03-01T01:57:52;2.60;83.70
48162;DHT22;33950;48.154;16.316;2023-03-01T02:00:39;2.60;83.30
48162;DHT22;33950;48.154;16.316;2023-03-01T02:03:27;2.60;83.30
48162;DHT22;33950;48.154;16.316;2023-03-01T02:06:21;2.70;83.20
48162;DHT22;33950;48.154;16.316;2023-03-01T02:09:11;2.70;83.20
48162;DHT22;33950;48.154;16.316;2023-03-01T02:11:58;2.90;83.40
48162;DHT22;33950;48.154;16.316;2023-03-01T02:14:45;2.90;83.00
48162;DHT22;33950;48.154;16.316;2023-03-01T02:17:31;2.90;82.90
48162;DHT22;33950;48.154;16.316;2023-03-01T02:20:23;2.80;82.90
48162;DHT22;33950;48.154;16.316;2023-03-01T02:23:13;2.70;82.90
48162;DHT22;33950;48.154;16.316;2023-03-01T02:26:02;2.60;83.10
48162;DHT22;33950;48.154;16.316;2023-03-01T02:28:54;2.60;83.60
48162;DHT22;33950;48.154;16.316;2023-03-01T02:31:40;2.60;83.70
48162;DHT22;33950;48.154;16.316;2023-03-01T02:34:27;2.50;84.10
48162;DHT22;33950;48.154;16.316;2023-03-01T02:37:16;2.60;84.30
48162;DHT22;33950;48.154;16.316;2023-03-01T02:40:09;2.70;84.30
48162;DHT22;33950;48.154;16.316;2023-03-01T02:43:01;2.70;84.20
48162;DHT22;33950;48.154;16.316;2023-03-01T02:45:51;2.90;84.10
48162;DHT22;33950;48.154;16.316;2023-03-01T02:48:41;2.90;83.90
48162;DHT22;33950;48.154;16.316;2023-03-01T02:51:38;3.00;83.90
48162;DHT22;33950;48.154;16.316;2023-03-01T02:54:29;2.90;84.20
48162;DHT22;33950;48.154;16.316;2023-03-01T02:57:17;2.90;84.20
48162;DHT22;33950;48.154;16.316;2023-03-01T03:00:06;3.00;83.80
48162;DHT22;33950;48.154;16.316;2023-03-01T03:02:54;3.10;83.70
48162;DHT22;33950;48.154;16.316;2023-03-01T03:05:43;3.10;83.50
48162;DHT22;33950;48.154;16.316;2023-03-01T03:08:29;3.10;83.40
48162;DHT22;33950;48.154;16.316;2023-03-01T03:11:15;3.10;83.10
48162;DHT22;33950;48.154;16.316;2023-03-01T03:14:01;3.00;83.10
48162;DHT22;33950;48.154;16.316;2023-03-01T03:16:48;3.10;83.30
48162;DHT22;33950;48.154;16.316;2023-03-01T03:19:36;3.20;83.30
48162;DHT22;33950;48.154;16.316;2023-03-01T03:22:22;3.20;83.30
48162;DHT22;33950;48.154;16.316;2023-03-01T03:25:08;3.20;83.50
48162;DHT22;33950;48.154;16.316;2023-03-01T03:27:57;3.20;83.50
48162;DHT22;33950;48.154;16.316;2023-03-01T03:30:44;3.40;83.60
48162;DHT22;33950;48.154;16.316;2023-03-01T03:33:30;3.30;83.30
48162;DHT22;33950;48.154;16.316;2023-03-01T03:36:21;3.20;83.30
48162;DHT22;33950;48.154;16.316;2023-03-01T03:39:07;3.20;83.40
48162;DHT22;33950;48.154;16.316;2023-03-01T03:41:53;3.10;83.50
48162;DHT22;33950;48.154;16.316;2023-03-01T03:44:39;3.10;83.40
48162;DHT22;33950;48.154;16.316;2023-03-01T03:47:26;3.00;83.60
48162;DHT22;33950;48.154;16.316;2023-03-01T03:50:13;3.00;83.70
48162;DHT22;33950;48.154;16.316;2023-03-01T03:53:03;2.90;83.90
48162;DHT22;33950;48.154;16.316;2023-03-01T03:55:51;3.10;84.00
48162;DHT22;33950;48.154;16.316;2023-03-01T03:58:37;3.00;84.00
48162;DHT22;33950;48.154;16.316;2023-03-01T04:01:23;3.10;83.90
48162;DHT22;33950;48.154;16.316;2023-03-01T04:04:09;3.00;83.80
48162;DHT22;33950;48.154;16.316;2023-03-01T04:06:55;3.10;83.80
48162;DHT22;33950;48.154;16.316;2023-03-01T04:09:43;3.10;83.90
48162;DHT22;33950;48.154;16.316;2023-03-01T04:12:29;3.20;83.90
48162;DHT22;33950;48.154;16.316;2023-03-01T04:15:15;3.20;83.60
48162;DHT22;33950;48.154;16.316;2023-03-01T04:18:02;3.10;83.70
48162;DHT22;33950;48.154;16.316;2023-03-01T04:20:48;3.20;83.80
48162;DHT22;33950;48.154;16.316;2023-03-01T04:23:34;3.20;83.70
48162;DHT22;33950;48.154;16.316;2023-03-01T04:26:22;3.10;83.80
48162;DHT22;33950;48.154;16.316;2023-03-01T04:29:08;3.10;83.90
48162;DHT22;33950;48.154;16.316;2023-03-01T04:31:54;3.10;84.00
48162;DHT22;33950;48.154;16.316;2023-03-01T04:34:40;3.10;84.00
48162;DHT22;33950;48.154;16.316;2023-03-01T04:37:26;3.10;84.00
48162;DHT22;33950;48.154;16.316;2023-03-01T04:40:13;3.10;84.10
48162;DHT22;33950;48.154;16.316;2023-03-01T04:43:04;3.10;84.10
48162;DHT22;33950;48.154;16.316;2023-03-01T04:45:50;3.10;84.30
48162;DHT22;33950;48.154;16.316;2023-03-01T04:48:37;3.20;84.20
48162;DHT22;33950;48.154;16.316;2023-03-01T04:51:23;3.10;84.10
48162;DHT22;33950;48.154;16.316;2023-03-01T04:54:09;3.20;84.20
48162;DHT22;33950;48.154;16.316;2023-03-01T04:56:56;3.30;84.00
48162;DHT22;33950;48.154;16.316;2023-03-01T04:59:44;3.20;84.20
48162;DHT22;33950;48.154;16.316;2023-03-01T05:02:30;3.20;84.20
48162;DHT22;33950;48.154;16.316;2023-03-01T05:05:16;3.30;84.20
48162;DHT22;33950;48.154;16.316;2023-03-01T05:08:04;3.20;84.30
48162;DHT22;33950;48.154;16.316;2023-03-01T05:10:52;3.20;84.40
48162;DHT22;33950;48.154;16.316;2023-03-01T05:13:39;3.20;84.50
48162;DHT22;33950;48.154;16.316;2023-03-01T05:16:26;3.30;84.60
48162;DHT22;33950;48.154;16.316;2023-03-01T05:19:13;3.30;84.60
48162;DHT22;33950;48.154;16.316;2023-03-01T05:22:01;3.30;84.60
48162;DHT22;33950;48.154;16.316;2023-03-01T05:24:50;3.40;84.60
48162;DHT22;33950;48.154;16.316;2023-03-01T05:27:36;3.30;84.40
48162;DHT22;33950;48.154;16.316;2023-03-01T05:30:22;3.40;84.40
48162;DHT22;33950;48.154;16.316;2023-03-01T05:33:09;3.40;84.10
48162;DHT22;33950;48.154;16.316;2023-03-01T05:36:00;3.30;84.40
48162;DHT22;33950;48.154;16.316;2023-03-01T05:38:46;3.40;84.50
48162;DHT22;33950;48.154;16.316;2023-03-01T05:41:32;3.50;84.30
48162;DHT22;33950;48.154;16.316;2023-03-01T05:44:18;3.60;84.40
48162;DHT22;33950;48.154;16.316;2023-03-01T05:47:04;3.70;84.30
48162;DHT22;33950;48.154;16.316;2023-03-01T05:49:51;3.80;84.30
48162;DHT22;33950;48.154;16.316;2023-03-01T05:52:38;3.80;83.90
48162;DHT22;33950;48.154;16.316;2023-03-01T05:55:24;3.70;83.90
48162;DHT22;33950;48.154;16.316;2023-03-01T05:58:12;3.60;83.90
48162;DHT22;33950;48.154;16.316;2023-03-01T06:00:59;3.70;84.00
48162;DHT22;33950;48.154;16.316;2023-03-01T06:03:46;3.70;84.00
48162;DHT22;33950;48.154;16.316;2023-03-01T06:06:35;3.80;84.00
48162;DHT22;33950;48.154;16.316;2023-03-01T06:09:23;3.80;83.90
48162;DHT22;33950;48.154;16.316;2023-03-01T06:12:09;3.80;84.50
48162;DHT22;33950;48.154;16.316;2023-03-01T06:14:55;3.80;84.10
48162;DHT22;33950;48.154;16.316;2023-03-01T06:17:43;3.80;83.70
48162;DHT22;33950;48.154;16.316;2023-03-01T06:20:29;3.80;83.40
48162;DHT22;33950;48.154;16.316;2023-03-01T06:23:16;3.60;83.40
48162;DHT22;33950;48.154;16.316;2023-03-01T06:26:05;3.50;83.50
48162;DHT22;33950;48.154;16.316;2023-03-01T06:28:51;3.40;83.90
48162;DHT22;33950;48.154;16.316;2023-03-01T06:31:38;3.40;84.00
48162;DHT22;33950;48.154;16.316;2023-03-01T06:34:24;3.50;84.20
48162;DHT22;33950;48.154;16.316;2023-03-01T06:37:10;3.60;84.30
48162;DHT22;33950;48.154;16.316;2023-03-01T06:39:57;3.60;84.50
48162;DHT22;33950;48.154;16.316;2023-03-01T06:42:48;3.70;84.80
48162;DHT22;33950;48.154;16.316;2023-03-01T06:45:37;3.80;84.40
48162;DHT22;33950;48.154;16.316;2023-03-01T06:48:23;3.80;84.70
48162;DHT22;33950;48.154;16.316;2023-03-01T06:51:09;3.80;84.40
48162;DHT22;33950;48.154;16.316;2023-03-01T06:53:55;3.90;84.20
48162;DHT22;33950;48.154;16.316;2023-03-01T06:56:43;3.90;83.90
48162;DHT22;33950;48.154;16.316;2023-03-01T06:59:32;3.90;83.70
48162;DHT22;33950;48.154;16.316;2023-03-01T07:02:18;3.90;83.70
48162;DHT22;33950;48.154;16.316;2023-03-01T07:05:05;3.90;83.70
48162;DHT22;33950;48.154;16.316;2023-03-01T07:07:51;4.00;83.70
48162;DHT22;33950;48.154;16.316;2023-03-01T07:10:38;4.10;83.50
48162;DHT22;33950;48.154;16.316;2023-03-01T07:13:26;4.10;83.00
48162;DHT22;33950;48.154;16.316;2023-03-01T07:16:12;4.20;82.80
48162;DHT22;33950;48.154;16.316;2023-03-01T07:19:00;4.30;82.60
48162;DHT22;33950;48.154;16.316;2023-03-01T07:21:46;4.30;82.60
48162;DHT22;33950;48.154;16.316;2023-03-01T07:24:32;4.30;82.50
48162;DHT22;33950;48.154;16.316;2023-03-01T07:27:18;4.30;82.40
48162;DHT22;33950;48.154;16.316;2023-03-01T07:30:07;4.30;82.50
48162;DHT22;33950;48.154;16.316;2023-03-01T07:32:53;4.30;82.60
48162;DHT22;33950;48.154;16.316;2023-03-01T07:35:39;4.20;82.70
48162;DHT22;33950;48.154;16.316;2023-03-01T07:38:25;4.30;82.70
48162;DHT22;33950;48.154;16.316;2023-03-01T07:41:12;4.40;82.50
48162;DHT22;33950;48.154;16.316;2023-03-01T07:43:58;4.50;82.70
48162;DHT22;33950;48.154;16.316;2023-03-01T07:46:45;4.50;82.70
48162;DHT22;33950;48.154;16.316;2023-03-01T07:49:31;4.60;83.20
48162;DHT22;33950;48.154;16.316;2023-03-01T07:52:17;4.50;82.60
48162;DHT22;33950;48.154;16.316;2023-03-01T07:55:04;4.60;82.60
48162;DHT22;33950;48.154;16.316;2023-03-01T07:57:50;4.60;82.50
48162;DHT22;33950;48.154;16.316;2023-03-01T08:00:36;4.60;82.70
48162;DHT22;33950;48.154;16.316;2023-03-01T08:03:24;4.50;82.50
48162;DHT22;33950;48.154;16.316;2023-03-01T08:06:11;4.50;82.70
48162;DHT22;33950;48.154;16.316;2023-03-01T08:08:58;4.50;82.70
48162;DHT22;33950;48.154;16.316;2023-03-01T08:11:44;4.50;82.90
48162;DHT22;33950;48.154;16.316;2023-03-01T08:14:30;4.50;82.80
48162;DHT22;33950;48.154;16.316;2023-03-01T08:17:16;4.60;82.40
48162;DHT22;33950;48.154;16.316;2023-03-01T08:20:05;4.60;82.60
48162;DHT22;33950;48.154;16.316;2023-03-01T08:22:52;4.60;82.70
48162;DHT22;33950;48.154;16.316;2023-03-01T08:25:39;4.60;82.90
48162;DHT22;33950;48.154;16.316;2023-03-01T08:28:25;4.60;82.90
48162;DHT22;33950;48.154;16.316;2023-03-01T08:31:16;4.60;82.80
48162;DHT22;33950;48.154;16.316;2023-03-01T08:34:04;4.70;83.10
48162;DHT22;33950;48.154;16.316;2023-03-01T08:36:52;4.80;82.90
48162;DHT22;33950;48.154;16.316;2023-03-01T08:39:38;4.70;83.00
48162;DHT22;33950;48.154;16.316;2023-03-01T08:42:24;4.60;83.90
48162;DHT22;33950;48.154;16.316;2023-03-01T08:45:11;4.60;83.40
48162;DHT22;33950;48.154;16.316;2023-03-01T08:47:57;4.60;83.30
48162;DHT22;33950;48.154;16.316;2023-03-01T08:50:43;4.50;83.40
48162;DHT22;33950;48.154;16.316;2023-03-01T08:53:30;4.50;83.50
48162;DHT22;33950;48.154;16.316;2023-03-01T08:56:18;4.50;82.90
48162;DHT22;33950;48.154;16.316;2023-03-01T08:59:05;4.60;83.20
48162;DHT22;33950;48.154;16.316;2023-03-01T09:01:51;4.80;83.00
48162;DHT22;33950;48.154;16.316;2023-03-01T09:04:37;4.80;82.80
48162;DHT22;33950;48.154;16.316;2023-03-01T09:07:23;4.90;82.50
48162;DHT22;33950;48.154;16.316;2023-03-01T09:10:15;4.90;82.40
48162;DHT22;33950;48.154;16.316;2023-03-01T09:13:01;5.00;82.30
48162;DHT22;33950;48.154;16.316;2023-03-01T09:15:47;5.00;82.10
48162;DHT22;33950;48.154;16.316;2023-03-01T09:18:34;5.00;82.60
48162;DHT22;33950;48.154;16.316;2023-03-01T09:21:22;5.20;82.20
48162;DHT22;33950;48.154;16.316;2023-03-01T09:24:13;5.30;81.30
48162;DHT22;33950;48.154;16.316;2023-03-01T09:27:01;5.30;81.40
48162;DHT22;33950;48.154;16.316;2023-03-01T09:29:48;5.30;81.20
48162;DHT22;33950;48.154;16.316;2023-03-01T09:32:34;5.40;81.20
48162;DHT22;33950;48.154;16.316;2023-03-01T09:35:20;5.60;80.90
48162;DHT22;33950;48.154;16.316;2023-03-01T09:38:08;5.60;80.30
48162;DHT22;33950;48.154;16.316;2023-03-01T09:40:54;5.60;80.10
48162;DHT22;33950;48.154;16.316;2023-03-01T09:43:44;5.70;79.50
48162;DHT22;33950;48.154;16.316;2023-03-01T09:46:37;5.70;79.50
48162;DHT22;33950;48.154;16.316;2023-03-01T09:49:28;5.70;79.70
48162;DHT22;33950;48.154;16.316;2023-03-01T09:52:23;5.70;79.70
48162;DHT22;33950;48.154;16.316;2023-03-01T09:55:13;5.80;79.90
48162;DHT22;33950;48.154;16.316;2023-03-01T09:58:04;5.90;79.50
48162;DHT22;33950;48.154;16.316;2023-03-01T10:00:54;5.90;79.60
48162;DHT22;33950;48.154;16.316;2023-03-01T10:03:44;6.00;79.70
48162;DHT22;33950;48.154;16.316;2023-03-01T10:06:33;6.20;79.30
48162;DHT22;33950;48.154;16.316;2023-03-01T10:09:19;6.20;78.50
48162;DHT22;33950;48.154;16.316;2023-03-01T10:12:10;6.20;78.90
48162;DHT22;33950;48.154;16.316;2023-03-01T10:15:01;6.10;78.90
48162;DHT22;33950;48.154;16.316;2023-03-01T10:17:52;6.10;78.60
48162;DHT22;33950;48.154;16.316;2023-03-01T10:20:45;6.10;78.60
48162;DHT22;33950;48.154;16.316;2023-03-01T10:23:33;6.20;78.40
48162;DHT22;33950;48.154;16.316;2023-03-01T10:26:37;6.40;79.10
48162;DHT22;33950;48.154;16.316;2023-03-01T10:29:26;6.70;78.70
48162;DHT22;33950;48.154;16.316;2023-03-01T10:32:15;6.90;78.10
48162;DHT22;33950;48.154;16.316;2023-03-01T10:35:16;7.00;77.70
48162;DHT22;33950;48.154;16.316;2023-03-01T10:38:04;7.10;77.80
48162;DHT22;33950;48.154;16.316;2023-03-01T10:40:53;7.30;77.70
48162;DHT22;33950;48.154;16.316;2023-03-01T10:43:46;7.50;77.30
48162;DHT22;33950;48.154;16.316;2023-03-01T10:46:34;7.60;76.70
48162;DHT22;33950;48.154;16.316;2023-03-01T10:49:21;7.70;76.80
48162;DHT22;33950;48.154;16.316;2023-03-01T10:52:18;7.80;76.80
48162;DHT22;33950;48.154;16.316;2023-03-01T10:55:26;7.90;76.40
48162;DHT22;33950;48.154;16.316;2023-03-01T10:58:18;7.90;76.60
48162;DHT22;33950;48.154;16.316;2023-03-01T11:01:26;8.10;76.30
48162;DHT22;33950;48.154;16.316;2023-03-01T11:04:14;8.30;76.20
48162;DHT22;33950;48.154;16.316;2023-03-01T11:07:01;8.60;76.50
48162;DHT22;33950;48.154;16.316;2023-03-01T11:09:49;8.80;76.30
48162;DHT22;33950;48.154;16.316;2023-03-01T11:12:40;9.00;75.90
48162;DHT22;33950;48.154;16.316;2023-03-01T11:15:28;9.00;75.50
48162;DHT22;33950;48.154;16.316;2023-03-01T11:18:23;8.80;74.80
48162;DHT22;33950;48.154;16.316;2023-03-01T11:21:10;8.90;75.30
48162;DHT22;33950;48.154;16.316;2023-03-01T11:23:58;9.10;74.90
48162;DHT22;33950;48.154;16.316;2023-03-01T11:26:51;9.10;73.80
48162;DHT22;33950;48.154;16.316;2023-03-01T11:29:42;9.10;74.00
48162;DHT22;33950;48.154;16.316;2023-03-01T11:32:34;9.10;73.70
48162;DHT22;33950;48.154;16.316;2023-03-01T11:35:24;9.00;73.90
48162;DHT22;33950;48.154;16.316;2023-03-01T11:38:21;8.80;74.00
48162;DHT22;33950;48.154;16.316;2023-03-01T11:41:11;8.70;75.20
48162;DHT22;33950;48.154;16.316;2023-03-01T11:44:02;8.70;74.40
48162;DHT22;33950;48.154;16.316;2023-03-01T11:47:07;9.00;74.60
48162;DHT22;33950;48.154;16.316;2023-03-01T11:50:07;9.60;75.20
48162;DHT22;33950;48.154;16.316;2023-03-01T11:53:09;10.00;73.20
48162;DHT22;33950;48.154;16.316;2023-03-01T11:56:03;9.80;72.50
48162;DHT22;33950;48.154;16.316;2023-03-01T11:59:06;9.50;73.40
48162;DHT22;33950;48.154;16.316;2023-03-01T12:05:56;9.50;73.80
48162;DHT22;33950;48.154;16.316;2023-03-01T12:08:56;9.40;74.20
48162;DHT22;33950;48.154;16.316;2023-03-01T12:12:01;9.30;74.10
48162;DHT22;33950;48.154;16.316;2023-03-01T12:15:05;9.20;73.70
48162;DHT22;33950;48.154;16.316;2023-03-01T12:18:08;9.20;74.20
48162;DHT22;33950;48.154;16.316;2023-03-01T12:21:03;9.20;74.30
48162;DHT22;33950;48.154;16.316;2023-03-01T12:24:10;9.00;74.50
48162;DHT22;33950;48.154;16.316;2023-03-01T12:27:17;8.90;74.90
48162;DHT22;33950;48.154;16.316;2023-03-01T12:30:22;8.90;75.20
48162;DHT22;33950;48.154;16.316;2023-03-01T12:33:17;8.90;75.30
48162;DHT22;33950;48.154;16.316;2023-03-01T12:36:24;8.90;75.30
48162;DHT22;33950;48.154;16.316;2023-03-01T12:39:23;8.90;75.50
48162;DHT22;33950;48.154;16.316;2023-03-01T12:42:20;9.10;75.30
48162;DHT22;33950;48.154;16.316;2023-03-01T12:45:31;9.20;75.20
48162;DHT22;33950;48.154;16.316;2023-03-01T12:48:31;9.30;75.30
48162;DHT22;33950;48.154;16.316;2023-03-01T12:51:24;9.40;74.80
48162;DHT22;33950;48.154;16.316;2023-03-01T12:54:15;9.50;75.20
48162;DHT22;33950;48.154;16.316;2023-03-01T12:57:12;9.60;74.90
48162;DHT22;33950;48.154;16.316;2023-03-01T13:00:09;9.70;74.90
48162;DHT22;33950;48.154;16.316;2023-03-01T13:03:02;9.80;74.50
48162;DHT22;33950;48.154;16.316;2023-03-01T13:06:08;10.00;74.60
48162;DHT22;33950;48.154;16.316;2023-03-01T13:09:02;10.10;74.00
48162;DHT22;33950;48.154;16.316;2023-03-01T13:11:50;10.10;74.30
48162;DHT22;33950;48.154;16.316;2023-03-01T13:14:45;10.10;74.40
48162;DHT22;33950;48.154;16.316;2023-03-01T13:17:33;10.20;74.80
48162;DHT22;33950;48.154;16.316;2023-03-01T13:20:31;10.60;74.40
48162;DHT22;33950;48.154;16.316;2023-03-01T13:23:26;10.80;73.40
48162;DHT22;33950;48.154;16.316;2023-03-01T13:26:14;10.90;72.70
48162;DHT22;33950;48.154;16.316;2023-03-01T13:29:01;10.80;73.00
48162;DHT22;33950;48.154;16.316;2023-03-01T13:31:57;10.80;73.20
48162;DHT22;33950;48.154;16.316;2023-03-01T13:34:49;10.90;73.70
48162;DHT22;33950;48.154;16.316;2023-03-01T13:37:40;10.90;73.00
48162;DHT22;33950;48.154;16.316;2023-03-01T13:40:57;11.30;73.20
48162;DHT22;33950;48.154;16.316;2023-03-01T13:43:46;11.40;72.60
48162;DHT22;33950;48.154;16.316;2023-03-01T13:46:33;11.30;72.90
48162;DHT22;33950;48.154;16.316;2023-03-01T13:49:21;11.30;73.10
48162;DHT22;33950;48.154;16.316;2023-03-01T13:52:30;11.20;73.30
48162;DHT22;33950;48.154;16.316;2023-03-01T13:55:23;11.20;74.10
48162;DHT22;33950;48.154;16.316;2023-03-01T13:58:20;11.10;73.70
48162;DHT22;33950;48.154;16.316;2023-03-01T14:01:18;11.00;73.80
48162;DHT22;33950;48.154;16.316;2023-03-01T14:04:20;10.90;73.70
48162;DHT22;33950;48.154;16.316;2023-03-01T14:07:11;10.90;74.00
48162;DHT22;33950;48.154;16.316;2023-03-01T14:10:04;10.90;73.70
48162;DHT22;33950;48.154;16.316;2023-03-01T14:12:57;10.70;73.90
48162;DHT22;33950;48.154;16.316;2023-03-01T14:15:54;10.70;74.30
48162;DHT22;33950;48.154;16.316;2023-03-01T14:18:47;10.90;74.10
48162;DHT22;33950;48.154;16.316;2023-03-01T14:21:37;11.10;73.70
48162;DHT22;33950;48.154;16.316;2023-03-01T14:24:24;11.20;73.70
48162;DHT22;33950;48.154;16.316;2023-03-01T14:27:13;11.10;73.80
48162;DHT22;33950;48.154;16.316;2023-03-01T14:30:09;11.10;73.60
48162;DHT22;33950;48.154;16.316;2023-03-01T14:33:00;11.00;73.80
48162;DHT22;33950;48.154;16.316;2023-03-01T14:35:56;11.10;73.90
48162;DHT22;33950;48.154;16.316;2023-03-01T14:38:44;11.00;74.00
48162;DHT22;33950;48.154;16.316;2023-03-01T14:41:34;11.00;74.50
48162;DHT22;33950;48.154;16.316;2023-03-01T14:44:23;10.90;74.40
48162;DHT22;33950;48.154;16.316;2023-03-01T14:47:15;10.80;74.30
48162;DHT22;33950;48.154;16.316;2023-03-01T14:50:07;10.80;74.50
48162;DHT22;33950;48.154;16.316;2023-03-01T14:52:55;10.80;74.60
48162;DHT22;33950;48.154;16.316;2023-03-01T14:55:45;10.80;74.60
48162;DHT22;33950;48.154;16.316;2023-03-01T14:58:32;10.60;74.70
48162;DHT22;33950;48.154;16.316;2023-03-01T15:01:20;10.50;75.00
48162;DHT22;33950;48.154;16.316;2023-03-01T15:04:13;10.40;75.30
48162;DHT22;33950;48.154;16.316;2023-03-01T15:07:02;10.20;75.60
48162;DHT22;33950;48.154;16.316;2023-03-01T15:09:50;10.20;76.00
48162;DHT22;33950;48.154;16.316;2023-03-01T15:12:40;10.30;76.00
48162;DHT22;33950;48.154;16.316;2023-03-01T15:15:36;10.20;76.30
48162;DHT22;33950;48.154;16.316;2023-03-01T15:18:26;10.20;76.30
48162;DHT22;33950;48.154;16.316;2023-03-01T15:21:21;10.20;76.30
48162;DHT22;33950;48.154;16.316;2023-03-01T15:24:17;10.20;76.50
48162;DHT22;33950;48.154;16.316;2023-03-01T15:27:14;10.20;76.10
48162;DHT22;33950;48.154;16.316;2023-03-01T15:30:02;10.10;76.40
48162;DHT22;33950;48.154;16.316;2023-03-01T15:32:54;10.10;76.50
48162;DHT22;33950;48.154;16.316;2023-03-01T15:36:40;10.10;76.60
48162;DHT22;33950;48.154;16.316;2023-03-01T15:39:33;10.00;76.80
48162;DHT22;33950;48.154;16.316;2023-03-01T15:42:40;10.00;76.90
48162;DHT22;33950;48.154;16.316;2023-03-01T15:45:27;9.80;77.00
48162;DHT22;33950;48.154;16.316;2023-03-01T15:48:17;9.90;77.10
48162;DHT22;33950;48.154;16.316;2023-03-01T15:51:04;9.90;77.10
48162;DHT22;33950;48.154;16.316;2023-03-01T15:53:59;9.90;77.20
48162;DHT22;33950;48.154;16.316;2023-03-01T15:56:46;9.90;77.20
48162;DHT22;33950;48.154;16.316;2023-03-01T15:59:32;9.90;77.10
48162;DHT22;33950;48.154;16.316;2023-03-01T16:02:18;9.80;77.10
48162;DHT22;33950;48.154;16.316;2023-03-01T16:05:16;9.70;77.30
48162;DHT22;33950;48.154;16.316;2023-03-01T16:08:04;9.70;77.50
48162;DHT22;33950;48.154;16.316;2023-03-01T16:10:56;9.70;77.70
48162;DHT22;33950;48.154;16.316;2023-03-01T16:13:44;9.70;77.70
48162;DHT22;33950;48.154;16.316;2023-03-01T16:16:31;9.60;77.60
48162;DHT22;33950;48.154;16.316;2023-03-01T16:19:17;9.60;77.60
48162;DHT22;33950;48.154;16.316;2023-03-01T16:22:03;9.60;77.80
48162;DHT22;33950;48.154;16.316;2023-03-01T16:24:49;9.60;77.70
48162;DHT22;33950;48.154;16.316;2023-03-01T16:27:37;9.60;77.80
48162;DHT22;33950;48.154;16.316;2023-03-01T16:30:23;9.60;77.80
48162;DHT22;33950;48.154;16.316;2023-03-01T16:33:09;9.60;77.60
48162;DHT22;33950;48.154;16.316;2023-03-01T16:35:56;9.60;77.50
48162;DHT22;33950;48.154;16.316;2023-03-01T16:38:42;9.60;77.50
48162;DHT22;33950;48.154;16.316;2023-03-01T16:41:28;9.60;77.70
48162;DHT22;33950;48.154;16.316;2023-03-01T16:44:16;9.60;77.70
48162;DHT22;33950;48.154;16.316;2023-03-01T16:47:02;9.60;77.80
48162;DHT22;33950;48.154;16.316;2023-03-01T16:49:51;9.60;77.90
48162;DHT22;33950;48.154;16.316;2023-03-01T16:52:38;9.50;77.90
48162;DHT22;33950;48.154;16.316;2023-03-01T16:55:24;9.50;77.80
48162;DHT22;33950;48.154;16.316;2023-03-01T16:58:10;9.50;78.00
48162;DHT22;33950;48.154;16.316;2023-03-01T17:01:03;9.50;78.00
48162;DHT22;33950;48.154;16.316;2023-03-01T17:03:50;9.50;78.00
48162;DHT22;33950;48.154;16.316;2023-03-01T17:06:36;9.50;78.10
48162;DHT22;33950;48.154;16.316;2023-03-01T17:09:22;9.50;77.90
48162;DHT22;33950;48.154;16.316;2023-03-01T17:12:08;9.50;77.90
48162;DHT22;33950;48.154;16.316;2023-03-01T17:14:54;9.50;78.20
48162;DHT22;33950;48.154;16.316;2023-03-01T17:17:41;9.50;78.20
48162;DHT22;33950;48.154;16.316;2023-03-01T17:20:28;9.50;78.20
48162;DHT22;33950;48.154;16.316;2023-03-01T17:23:14;9.50;78.30
48162;DHT22;33950;48.154;16.316;2023-03-01T17:26:00;9.50;78.40
48162;DHT22;33950;48.154;16.316;2023-03-01T17:28:46;9.50;78.40
48162;DHT22;33950;48.154;16.316;2023-03-01T17:31:40;9.50;78.30
48162;DHT22;33950;48.154;16.316;2023-03-01T17:34:27;9.50;78.50
48162;DHT22;33950;48.154;16.316;2023-03-01T17:37:13;9.40;78.10
48162;DHT22;33950;48.154;16.316;2023-03-01T17:39:59;9.40;78.30
48162;DHT22;33950;48.154;16.316;2023-03-01T17:42:45;9.40;78.10
48162;DHT22;33950;48.154;16.316;2023-03-01T17:45:31;9.40;78.00
48162;DHT22;33950;48.154;16.316;2023-03-01T17:48:17;9.40;78.10
48162;DHT22;33950;48.154;16.316;2023-03-01T17:51:09;9.40;78.30